Terminal Aerodrome Forecast
Issued by NWS

Home | Current Version | Previous Version | Text Only | Print | Product List | Glossary On
Versions: 1 2 3 4 5 6 7 8 9 10 11 12 13 14 15 16 17 18 19 20 21 22
000
FTUS41 KGYX 020200 AAA
TAFAUG
TAF AMD
KAUG 020204Z 0202/0224 VRB03KT P6SM SCT120 BKN200
     FM020400 VRB03KT 3SM BR SCT120 BKN200
     FM020600 00000KT 1SM BR SCT002 SCT050 BKN200
     FM021200 19007KT P6SM BKN120=

USA.gov is the U.S. government's official web portal to all federal, state and local government web resources and services.